sensor_id;sensor_type;location;lat;lon;timestamp;temperature;humidity
4604;DHT22;2314;48.272;11.562;2024-03-07T00:00:53;4.60;99.90
4604;DHT22;2314;48.272;11.562;2024-03-07T00:03:20;4.50;99.90
4604;DHT22;2314;48.272;11.562;2024-03-07T00:05:49;4.50;99.90
4604;DHT22;2314;48.272;11.562;2024-03-07T00:08:17;4.50;99.90
4604;DHT22;2314;48.272;11.562;2024-03-07T00:10:45;4.40;99.90
4604;DHT22;2314;48.272;11.562;2024-03-07T00:13:13;4.50;99.90
4604;DHT22;2314;48.272;11.562;2024-03-07T00:15:40;4.50;99.90
4604;DHT22;2314;48.272;11.562;2024-03-07T00:18:07;4.50;99.90
4604;DHT22;2314;48.272;11.562;2024-03-07T00:20:35;4.50;99.90
4604;DHT22;2314;48.272;11.562;2024-03-07T00:23:03;4.50;99.90
4604;DHT22;2314;48.272;11.562;2024-03-07T00:25:30;4.50;99.90
4604;DHT22;2314;48.272;11.562;2024-03-07T00:27:59;4.50;99.90
4604;DHT22;2314;48.272;11.562;2024-03-07T00:30:28;4.50;99.90
4604;DHT22;2314;48.272;11.562;2024-03-07T00:32:55;4.50;99.90
4604;DHT22;2314;48.272;11.562;2024-03-07T00:35:23;4.50;99.90
4604;DHT22;2314;48.272;11.562;2024-03-07T00:37:50;4.50;99.90
4604;DHT22;2314;48.272;11.562;2024-03-07T00:40:17;4.50;99.90
4604;DHT22;2314;48.272;11.562;2024-03-07T00:42:45;4.50;99.90
4604;DHT22;2314;48.272;11.562;2024-03-07T00:45:13;4.50;99.90
4604;DHT22;2314;48.272;11.562;2024-03-07T00:47:40;4.50;99.90
4604;DHT22;2314;48.272;11.562;2024-03-07T00:50:08;4.50;99.90
4604;DHT22;2314;48.272;11.562;2024-03-07T00:52:35;4.50;99.90
4604;DHT22;2314;48.272;11.562;2024-03-07T00:55:05;4.50;99.90
4604;DHT22;2314;48.272;11.562;2024-03-07T00:57:34;4.50;99.90
4604;DHT22;2314;48.272;11.562;2024-03-07T01:00:01;4.50;99.90
4604;DHT22;2314;48.272;11.562;2024-03-07T01:02:30;4.50;99.90
4604;DHT22;2314;48.272;11.562;2024-03-07T01:04:57;4.40;99.90
4604;DHT22;2314;48.272;11.562;2024-03-07T01:07:24;4.40;99.90
4604;DHT22;2314;48.272;11.562;2024-03-07T01:09:53;4.40;99.90
4604;DHT22;2314;48.272;11.562;2024-03-07T01:12:20;4.40;99.90
4604;DHT22;2314;48.272;11.562;2024-03-07T01:14:49;4.40;99.90
4604;DHT22;2314;48.272;11.562;2024-03-07T01:17:16;4.40;99.90
4604;DHT22;2314;48.272;11.562;2024-03-07T01:19:45;4.40;99.90
4604;DHT22;2314;48.272;11.562;2024-03-07T01:22:12;4.40;99.90
4604;DHT22;2314;48.272;11.562;2024-03-07T01:24:39;4.40;99.90
4604;DHT22;2314;48.272;11.562;2024-03-07T01:27:06;4.40;99.90
4604;DHT22;2314;48.272;11.562;2024-03-07T01:29:33;4.50;99.90
4604;DHT22;2314;48.272;11.562;2024-03-07T01:32:00;4.50;99.90
4604;DHT22;2314;48.272;11.562;2024-03-07T01:34:28;4.50;99.90
4604;DHT22;2314;48.272;11.562;2024-03-07T01:36:57;4.50;99.90
4604;DHT22;2314;48.272;11.562;2024-03-07T01:39:24;4.50;99.90
4604;DHT22;2314;48.272;11.562;2024-03-07T01:41:51;4.50;99.90
4604;DHT22;2314;48.272;11.562;2024-03-07T01:44:18;4.50;99.90
4604;DHT22;2314;48.272;11.562;2024-03-07T01:46:45;4.40;99.90
4604;DHT22;2314;48.272;11.562;2024-03-07T01:49:13;4.40;99.90
4604;DHT22;2314;48.272;11.562;2024-03-07T01:51:40;4.30;99.90
4604;DHT22;2314;48.272;11.562;2024-03-07T01:54:10;4.30;99.90
4604;DHT22;2314;48.272;11.562;2024-03-07T01:56:38;4.10;99.90
4604;DHT22;2314;48.272;11.562;2024-03-07T01:59:06;4.10;99.90
4604;DHT22;2314;48.272;11.562;2024-03-07T02:01:34;4.10;99.90
4604;DHT22;2314;48.272;11.562;2024-03-07T02:04:02;4.00;99.90
4604;DHT22;2314;48.272;11.562;2024-03-07T02:06:30;3.90;99.90
4604;DHT22;2314;48.272;11.562;2024-03-07T02:08:57;3.90;99.90
4604;DHT22;2314;48.272;11.562;2024-03-07T02:11:25;3.80;99.90
4604;DHT22;2314;48.272;11.562;2024-03-07T02:13:52;3.80;99.90
4604;DHT22;2314;48.272;11.562;2024-03-07T02:16:19;3.80;99.90
4604;DHT22;2314;48.272;11.562;2024-03-07T02:18:46;3.80;99.90
4604;DHT22;2314;48.272;11.562;2024-03-07T02:21:15;3.80;99.90
4604;DHT22;2314;48.272;11.562;2024-03-07T02:23:42;3.80;99.90
4604;DHT22;2314;48.272;11.562;2024-03-07T02:26:09;3.80;99.90
4604;DHT22;2314;48.272;11.562;2024-03-07T02:28:36;3.80;99.90
4604;DHT22;2314;48.272;11.562;2024-03-07T02:31:03;3.80;99.90
4604;DHT22;2314;48.272;11.562;2024-03-07T02:33:30;3.80;99.90
4604;DHT22;2314;48.272;11.562;2024-03-07T02:35:57;3.80;99.90
4604;DHT22;2314;48.272;11.562;2024-03-07T02:38:26;3.80;99.90
4604;DHT22;2314;48.272;11.562;2024-03-07T02:40:53;3.80;99.90
4604;DHT22;2314;48.272;11.562;2024-03-07T02:43:20;3.70;99.90
4604;DHT22;2314;48.272;11.562;2024-03-07T02:45:47;3.70;99.90
4604;DHT22;2314;48.272;11.562;2024-03-07T02:48:15;3.70;99.90
4604;DHT22;2314;48.272;11.562;2024-03-07T02:50:43;3.70;99.90
4604;DHT22;2314;48.272;11.562;2024-03-07T02:53:11;3.70;99.90
4604;DHT22;2314;48.272;11.562;2024-03-07T02:55:39;3.60;99.90
4604;DHT22;2314;48.272;11.562;2024-03-07T02:58:06;3.60;99.90
4604;DHT22;2314;48.272;11.562;2024-03-07T03:00:33;3.70;99.90
4604;DHT22;2314;48.272;11.562;2024-03-07T03:03:01;3.70;99.90
4604;DHT22;2314;48.272;11.562;2024-03-07T03:05:28;3.70;99.90
4604;DHT22;2314;48.272;11.562;2024-03-07T03:07:55;3.70;99.90
4604;DHT22;2314;48.272;11.562;2024-03-07T03:10:23;3.70;99.90
4604;DHT22;2314;48.272;11.562;2024-03-07T03:12:56;3.70;99.90
4604;DHT22;2314;48.272;11.562;2024-03-07T03:15:24;3.70;99.90
4604;DHT22;2314;48.272;11.562;2024-03-07T03:17:52;3.70;99.90
4604;DHT22;2314;48.272;11.562;2024-03-07T03:20:19;3.70;99.90
4604;DHT22;2314;48.272;11.562;2024-03-07T03:22:52;3.60;99.90
4604;DHT22;2314;48.272;11.562;2024-03-07T03:25:19;3.60;99.90
4604;DHT22;2314;48.272;11.562;2024-03-07T03:27:46;3.50;99.90
4604;DHT22;2314;48.272;11.562;2024-03-07T03:30:16;3.40;99.90
4604;DHT22;2314;48.272;11.562;2024-03-07T03:32:44;3.40;99.90
4604;DHT22;2314;48.272;11.562;2024-03-07T03:35:13;3.40;99.90
4604;DHT22;2314;48.272;11.562;2024-03-07T03:37:41;3.30;99.90
4604;DHT22;2314;48.272;11.562;2024-03-07T03:40:10;3.20;99.90
4604;DHT22;2314;48.272;11.562;2024-03-07T03:42:38;3.20;99.90
4604;DHT22;2314;48.272;11.562;2024-03-07T03:45:07;3.10;99.90
4604;DHT22;2314;48.272;11.562;2024-03-07T03:47:42;3.00;99.90
4604;DHT22;2314;48.272;11.562;2024-03-07T03:50:10;2.90;99.90
4604;DHT22;2314;48.272;11.562;2024-03-07T03:52:38;2.80;99.90
4604;DHT22;2314;48.272;11.562;2024-03-07T03:55:07;2.70;99.90
4604;DHT22;2314;48.272;11.562;2024-03-07T03:57:36;2.60;99.90
4604;DHT22;2314;48.272;11.562;2024-03-07T04:00:05;2.50;99.90
4604;DHT22;2314;48.272;11.562;2024-03-07T04:02:38;2.30;99.90
4604;DHT22;2314;48.272;11.562;2024-03-07T04:05:08;2.40;99.90
4604;DHT22;2314;48.272;11.562;2024-03-07T04:07:36;2.40;99.90
4604;DHT22;2314;48.272;11.562;2024-03-07T04:10:04;2.30;99.90
4604;DHT22;2314;48.272;11.562;2024-03-07T04:12:33;2.30;99.90
4604;DHT22;2314;48.272;11.562;2024-03-07T04:15:00;2.30;99.90
4604;DHT22;2314;48.272;11.562;2024-03-07T04:17:29;2.30;99.90
4604;DHT22;2314;48.272;11.562;2024-03-07T04:19:58;2.30;99.90
4604;DHT22;2314;48.272;11.562;2024-03-07T04:22:26;2.40;99.90
4604;DHT22;2314;48.272;11.562;2024-03-07T04:24:53;2.40;99.90
4604;DHT22;2314;48.272;11.562;2024-03-07T04:27:20;2.50;99.90
4604;DHT22;2314;48.272;11.562;2024-03-07T04:29:48;2.60;99.90
4604;DHT22;2314;48.272;11.562;2024-03-07T04:32:15;2.70;99.90
4604;DHT22;2314;48.272;11.562;2024-03-07T04:34:43;2.70;99.90
4604;DHT22;2314;48.272;11.562;2024-03-07T04:37:12;2.70;99.90
4604;DHT22;2314;48.272;11.562;2024-03-07T04:39:40;2.80;99.90
4604;DHT22;2314;48.272;11.562;2024-03-07T04:42:08;2.70;99.90
4604;DHT22;2314;48.272;11.562;2024-03-07T04:44:36;2.70;99.90
4604;DHT22;2314;48.272;11.562;2024-03-07T04:47:05;2.70;99.90
4604;DHT22;2314;48.272;11.562;2024-03-07T04:49:33;2.70;99.90
4604;DHT22;2314;48.272;11.562;2024-03-07T04:52:02;2.70;99.90
4604;DHT22;2314;48.272;11.562;2024-03-07T04:54:31;2.70;99.90
4604;DHT22;2314;48.272;11.562;2024-03-07T04:56:59;2.70;99.90
4604;DHT22;2314;48.272;11.562;2024-03-07T04:59:27;2.70;99.90
4604;DHT22;2314;48.272;11.562;2024-03-07T05:01:54;2.70;99.90
4604;DHT22;2314;48.272;11.562;2024-03-07T05:04:21;2.70;99.90
4604;DHT22;2314;48.272;11.562;2024-03-07T05:06:51;2.70;99.90
4604;DHT22;2314;48.272;11.562;2024-03-07T05:09:18;2.70;99.90
4604;DHT22;2314;48.272;11.562;2024-03-07T05:11:55;2.70;99.90
4604;DHT22;2314;48.272;11.562;2024-03-07T05:14:25;2.60;99.90
4604;DHT22;2314;48.272;11.562;2024-03-07T05:16:52;2.70;99.90
4604;DHT22;2314;48.272;11.562;2024-03-07T05:19:31;2.70;99.90
4604;DHT22;2314;48.272;11.562;2024-03-07T05:21:59;2.70;99.90
4604;DHT22;2314;48.272;11.562;2024-03-07T05:24:26;2.60;99.90
4604;DHT22;2314;48.272;11.562;2024-03-07T05:26:54;2.60;99.90
4604;DHT22;2314;48.272;11.562;2024-03-07T05:29:22;2.50;99.90
4604;DHT22;2314;48.272;11.562;2024-03-07T05:31:49;2.50;99.90
4604;DHT22;2314;48.272;11.562;2024-03-07T05:34:16;2.50;99.90
4604;DHT22;2314;48.272;11.562;2024-03-07T05:36:45;2.50;99.90
4604;DHT22;2314;48.272;11.562;2024-03-07T05:39:13;2.50;99.90
4604;DHT22;2314;48.272;11.562;2024-03-07T05:41:42;2.40;99.90
4604;DHT22;2314;48.272;11.562;2024-03-07T05:44:12;2.50;99.90
4604;DHT22;2314;48.272;11.562;2024-03-07T05:46:39;2.50;99.90
4604;DHT22;2314;48.272;11.562;2024-03-07T05:49:12;2.50;99.90
4604;DHT22;2314;48.272;11.562;2024-03-07T05:51:39;2.50;99.90
4604;DHT22;2314;48.272;11.562;2024-03-07T05:54:07;2.50;99.90
4604;DHT22;2314;48.272;11.562;2024-03-07T05:56:34;2.50;99.90
4604;DHT22;2314;48.272;11.562;2024-03-07T05:59:02;2.60;99.90
4604;DHT22;2314;48.272;11.562;2024-03-07T06:01:32;2.60;99.90
4604;DHT22;2314;48.272;11.562;2024-03-07T06:04:00;2.60;99.90
4604;DHT22;2314;48.272;11.562;2024-03-07T06:06:27;2.60;99.90
4604;DHT22;2314;48.272;11.562;2024-03-07T06:08:55;2.60;99.90
4604;DHT22;2314;48.272;11.562;2024-03-07T06:11:22;2.60;99.90
4604;DHT22;2314;48.272;11.562;2024-03-07T06:13:49;2.60;99.90
4604;DHT22;2314;48.272;11.562;2024-03-07T06:16:16;2.60;99.90
4604;DHT22;2314;48.272;11.562;2024-03-07T06:18:45;2.70;99.90
4604;DHT22;2314;48.272;11.562;2024-03-07T06:21:12;2.70;99.90
4604;DHT22;2314;48.272;11.562;2024-03-07T06:23:40;2.80;99.90
4604;DHT22;2314;48.272;11.562;2024-03-07T06:26:12;2.80;99.90
4604;DHT22;2314;48.272;11.562;2024-03-07T06:28:42;2.90;99.90
4604;DHT22;2314;48.272;11.562;2024-03-07T06:31:10;3.00;99.90
4604;DHT22;2314;48.272;11.562;2024-03-07T06:33:37;3.00;99.90
4604;DHT22;2314;48.272;11.562;2024-03-07T06:36:06;3.10;99.90
4604;DHT22;2314;48.272;11.562;2024-03-07T06:38:34;3.20;99.90
4604;DHT22;2314;48.272;11.562;2024-03-07T06:41:01;3.20;99.90
4604;DHT22;2314;48.272;11.562;2024-03-07T06:43:28;3.20;99.90
4604;DHT22;2314;48.272;11.562;2024-03-07T06:45:55;3.20;99.90
4604;DHT22;2314;48.272;11.562;2024-03-07T06:48:22;3.20;99.90
4604;DHT22;2314;48.272;11.562;2024-03-07T06:50:49;3.20;99.90
4604;DHT22;2314;48.272;11.562;2024-03-07T06:53:19;3.30;99.90
4604;DHT22;2314;48.272;11.562;2024-03-07T06:55:51;3.30;99.90
4604;DHT22;2314;48.272;11.562;2024-03-07T06:58:19;3.30;99.90
4604;DHT22;2314;48.272;11.562;2024-03-07T07:00:46;3.30;99.90
4604;DHT22;2314;48.272;11.562;2024-03-07T07:03:13;3.30;99.90
4604;DHT22;2314;48.272;11.562;2024-03-07T07:05:40;3.30;99.90
4604;DHT22;2314;48.272;11.562;2024-03-07T07:08:07;3.40;99.90
4604;DHT22;2314;48.272;11.562;2024-03-07T07:10:36;3.40;99.90
4604;DHT22;2314;48.272;11.562;2024-03-07T07:13:04;3.40;99.90
4604;DHT22;2314;48.272;11.562;2024-03-07T07:15:31;3.40;99.90
4604;DHT22;2314;48.272;11.562;2024-03-07T07:18:00;3.50;99.90
4604;DHT22;2314;48.272;11.562;2024-03-07T07:20:28;3.60;99.90
4604;DHT22;2314;48.272;11.562;2024-03-07T07:22:55;3.60;99.90
4604;DHT22;2314;48.272;11.562;2024-03-07T07:25:23;3.70;99.90
4604;DHT22;2314;48.272;11.562;2024-03-07T07:27:54;3.80;99.90
4604;DHT22;2314;48.272;11.562;2024-03-07T07:30:22;3.90;99.90
4604;DHT22;2314;48.272;11.562;2024-03-07T07:32:50;3.90;99.90
4604;DHT22;2314;48.272;11.562;2024-03-07T07:35:19;3.90;99.90
4604;DHT22;2314;48.272;11.562;2024-03-07T07:37:48;3.90;99.90
4604;DHT22;2314;48.272;11.562;2024-03-07T07:40:18;3.90;99.90
4604;DHT22;2314;48.272;11.562;2024-03-07T07:42:49;3.90;99.90
4604;DHT22;2314;48.272;11.562;2024-03-07T07:45:20;3.90;99.90
4604;DHT22;2314;48.272;11.562;2024-03-07T07:47:49;3.90;99.90
4604;DHT22;2314;48.272;11.562;2024-03-07T07:50:18;4.00;99.90
4604;DHT22;2314;48.272;11.562;2024-03-07T07:52:48;4.00;99.90
4604;DHT22;2314;48.272;11.562;2024-03-07T07:55:17;4.10;99.90
4604;DHT22;2314;48.272;11.562;2024-03-07T07:57:48;4.10;99.90
4604;DHT22;2314;48.272;11.562;2024-03-07T08:00:20;4.30;99.90
4604;DHT22;2314;48.272;11.562;2024-03-07T08:02:53;4.30;99.90
4604;DHT22;2314;48.272;11.562;2024-03-07T08:05:21;4.50;99.90
4604;DHT22;2314;48.272;11.562;2024-03-07T08:07:50;4.60;99.90
4604;DHT22;2314;48.272;11.562;2024-03-07T08:10:18;4.70;99.90
4604;DHT22;2314;48.272;11.562;2024-03-07T08:12:46;4.80;99.90
4604;DHT22;2314;48.272;11.562;2024-03-07T08:15:14;4.90;99.90
4604;DHT22;2314;48.272;11.562;2024-03-07T08:17:44;4.90;99.90
4604;DHT22;2314;48.272;11.562;2024-03-07T08:20:12;4.80;99.90
4604;DHT22;2314;48.272;11.562;2024-03-07T08:22:41;4.70;99.90
4604;DHT22;2314;48.272;11.562;2024-03-07T08:25:10;4.60;99.90
4604;DHT22;2314;48.272;11.562;2024-03-07T08:27:41;4.60;99.90
4604;DHT22;2314;48.272;11.562;2024-03-07T08:30:16;4.70;99.90
4604;DHT22;2314;48.272;11.562;2024-03-07T08:32:57;4.70;99.90
4604;DHT22;2314;48.272;11.562;2024-03-07T08:35:28;4.70;99.90
4604;DHT22;2314;48.272;11.562;2024-03-07T08:37:55;5.00;99.90
4604;DHT22;2314;48.272;11.562;2024-03-07T08:40:26;5.80;99.90
4604;DHT22;2314;48.272;11.562;2024-03-07T08:42:58;6.30;99.90
4604;DHT22;2314;48.272;11.562;2024-03-07T08:45:29;6.20;99.90
4604;DHT22;2314;48.272;11.562;2024-03-07T08:48:00;6.30;99.90
4604;DHT22;2314;48.272;11.562;2024-03-07T08:50:29;6.20;99.90
4604;DHT22;2314;48.272;11.562;2024-03-07T08:53:00;6.20;99.90
4604;DHT22;2314;48.272;11.562;2024-03-07T08:55:30;6.30;99.90
4604;DHT22;2314;48.272;11.562;2024-03-07T08:58:06;6.30;99.90
4604;DHT22;2314;48.272;11.562;2024-03-07T09:00:34;6.40;99.90
4604;DHT22;2314;48.272;11.562;2024-03-07T09:03:02;6.50;99.90
4604;DHT22;2314;48.272;11.562;2024-03-07T09:05:35;6.50;99.90
4604;DHT22;2314;48.272;11.562;2024-03-07T09:08:03;6.70;99.90
4604;DHT22;2314;48.272;11.562;2024-03-07T09:10:33;6.90;99.90
4604;DHT22;2314;48.272;11.562;2024-03-07T09:13:09;6.90;99.90
4604;DHT22;2314;48.272;11.562;2024-03-07T09:15:36;7.00;99.90
4604;DHT22;2314;48.272;11.562;2024-03-07T09:18:09;7.10;99.90
4604;DHT22;2314;48.272;11.562;2024-03-07T09:20:38;7.10;99.90
4604;DHT22;2314;48.272;11.562;2024-03-07T09:23:05;7.20;99.90
4604;DHT22;2314;48.272;11.562;2024-03-07T09:25:32;7.50;99.90
4604;DHT22;2314;48.272;11.562;2024-03-07T09:28:00;7.60;99.90
4604;DHT22;2314;48.272;11.562;2024-03-07T09:30:27;7.70;99.90
4604;DHT22;2314;48.272;11.562;2024-03-07T09:32:56;7.70;99.90
4604;DHT22;2314;48.272;11.562;2024-03-07T09:35:24;7.80;99.90
4604;DHT22;2314;48.272;11.562;2024-03-07T09:37:51;7.80;99.90
4604;DHT22;2314;48.272;11.562;2024-03-07T09:40:19;7.80;99.90
4604;DHT22;2314;48.272;11.562;2024-03-07T09:42:50;8.00;99.90
4604;DHT22;2314;48.272;11.562;2024-03-07T09:45:19;8.20;99.90
4604;DHT22;2314;48.272;11.562;2024-03-07T09:47:48;8.40;99.90
4604;DHT22;2314;48.272;11.562;2024-03-07T09:50:18;8.50;99.90
4604;DHT22;2314;48.272;11.562;2024-03-07T09:52:49;8.70;99.90
4604;DHT22;2314;48.272;11.562;2024-03-07T09:55:17;8.80;99.90
4604;DHT22;2314;48.272;11.562;2024-03-07T09:57:46;9.00;99.90
4604;DHT22;2314;48.272;11.562;2024-03-07T10:00:16;9.10;99.90
4604;DHT22;2314;48.272;11.562;2024-03-07T10:02:50;9.20;99.90
4604;DHT22;2314;48.272;11.562;2024-03-07T10:05:22;9.10;99.90
4604;DHT22;2314;48.272;11.562;2024-03-07T10:08:07;8.90;99.90
4604;DHT22;2314;48.272;11.562;2024-03-07T10:10:39;8.70;99.90
4604;DHT22;2314;48.272;11.562;2024-03-07T10:13:06;8.70;99.90
4604;DHT22;2314;48.272;11.562;2024-03-07T10:15:35;8.50;99.90
4604;DHT22;2314;48.272;11.562;2024-03-07T10:18:07;8.50;99.90
4604;DHT22;2314;48.272;11.562;2024-03-07T10:20:36;8.50;99.90
4604;DHT22;2314;48.272;11.562;2024-03-07T10:23:06;8.40;99.90
4604;DHT22;2314;48.272;11.562;2024-03-07T10:25:34;8.40;99.90
4604;DHT22;2314;48.272;11.562;2024-03-07T10:28:03;8.60;99.90
4604;DHT22;2314;48.272;11.562;2024-03-07T10:30:39;8.80;99.90
4604;DHT22;2314;48.272;11.562;2024-03-07T10:33:07;8.50;99.90
4604;DHT22;2314;48.272;11.562;2024-03-07T10:35:34;8.20;99.90
4604;DHT22;2314;48.272;11.562;2024-03-07T10:38:00;7.90;99.90
4604;DHT22;2314;48.272;11.562;2024-03-07T10:40:33;8.00;99.90
4604;DHT22;2314;48.272;11.562;2024-03-07T10:43:07;8.00;99.90
4604;DHT22;2314;48.272;11.562;2024-03-07T10:45:41;7.90;99.90
4604;DHT22;2314;48.272;11.562;2024-03-07T10:48:12;7.90;99.90
4604;DHT22;2314;48.272;11.562;2024-03-07T10:50:46;7.90;99.90
4604;DHT22;2314;48.272;11.562;2024-03-07T10:53:23;8.00;99.90
4604;DHT22;2314;48.272;11.562;2024-03-07T10:56:06;8.20;99.90
4604;DHT22;2314;48.272;11.562;2024-03-07T10:58:50;8.30;99.90
4604;DHT22;2314;48.272;11.562;2024-03-07T11:01:26;8.20;99.90
4604;DHT22;2314;48.272;11.562;2024-03-07T11:03:59;8.20;99.90
4604;DHT22;2314;48.272;11.562;2024-03-07T11:06:30;8.10;99.90
4604;DHT22;2314;48.272;11.562;2024-03-07T11:09:00;8.10;99.90
4604;DHT22;2314;48.272;11.562;2024-03-07T11:11:37;8.10;99.90
4604;DHT22;2314;48.272;11.562;2024-03-07T11:14:07;8.30;99.90
4604;DHT22;2314;48.272;11.562;2024-03-07T11:16:37;8.90;99.90
4604;DHT22;2314;48.272;11.562;2024-03-07T11:19:19;9.50;99.90
4604;DHT22;2314;48.272;11.562;2024-03-07T11:21:53;10.00;99.90
4604;DHT22;2314;48.272;11.562;2024-03-07T11:24:25;10.70;99.90
4604;DHT22;2314;48.272;11.562;2024-03-07T11:26:56;11.40;99.90
4604;DHT22;2314;48.272;11.562;2024-03-07T11:29:46;11.70;99.90
4604;DHT22;2314;48.272;11.562;2024-03-07T11:32:18;11.70;99.90
4604;DHT22;2314;48.272;11.562;2024-03-07T11:34:48;11.30;99.90
4604;DHT22;2314;48.272;11.562;2024-03-07T11:37:19;10.80;99.90
4604;DHT22;2314;48.272;11.562;2024-03-07T11:39:49;10.20;99.90
4604;DHT22;2314;48.272;11.562;2024-03-07T11:42:27;10.00;99.90
4604;DHT22;2314;48.272;11.562;2024-03-07T11:44:57;9.70;99.90
4604;DHT22;2314;48.272;11.562;2024-03-07T11:47:25;9.30;99.90
4604;DHT22;2314;48.272;11.562;2024-03-07T11:49:54;9.00;99.90
4604;DHT22;2314;48.272;11.562;2024-03-07T11:52:23;9.10;99.90
4604;DHT22;2314;48.272;11.562;2024-03-07T11:54:53;9.40;99.90
4604;DHT22;2314;48.272;11.562;2024-03-07T11:57:30;9.50;99.90
4604;DHT22;2314;48.272;11.562;2024-03-07T11:59:59;9.50;99.90
4604;DHT22;2314;48.272;11.562;2024-03-07T12:02:33;9.60;99.90
4604;DHT22;2314;48.272;11.562;2024-03-07T12:05:02;9.50;99.90
4604;DHT22;2314;48.272;11.562;2024-03-07T12:07:30;9.80;99.90
4604;DHT22;2314;48.272;11.562;2024-03-07T12:09:59;9.80;99.90
4604;DHT22;2314;48.272;11.562;2024-03-07T12:12:31;9.90;99.90
4604;DHT22;2314;48.272;11.562;2024-03-07T12:14:58;9.80;99.90
4604;DHT22;2314;48.272;11.562;2024-03-07T12:17:27;9.60;99.90
4604;DHT22;2314;48.272;11.562;2024-03-07T12:19:56;9.30;99.90
4604;DHT22;2314;48.272;11.562;2024-03-07T12:22:27;9.40;99.90
4604;DHT22;2314;48.272;11.562;2024-03-07T12:25:03;9.40;99.90
4604;DHT22;2314;48.272;11.562;2024-03-07T12:27:35;9.60;99.90
4604;DHT22;2314;48.272;11.562;2024-03-07T12:30:15;9.90;99.90
4604;DHT22;2314;48.272;11.562;2024-03-07T12:32:48;10.00;99.90
4604;DHT22;2314;48.272;11.562;2024-03-07T12:35:15;10.20;99.90
4604;DHT22;2314;48.272;11.562;2024-03-07T12:37:44;10.30;99.90
4604;DHT22;2314;48.272;11.562;2024-03-07T12:40:12;10.30;99.90
4604;DHT22;2314;48.272;11.562;2024-03-07T12:42:48;10.20;99.90
4604;DHT22;2314;48.272;11.562;2024-03-07T12:45:18;10.20;99.90
4604;DHT22;2314;48.272;11.562;2024-03-07T12:47:46;10.20;99.90
4604;DHT22;2314;48.272;11.562;2024-03-07T12:50:17;10.00;99.90
4604;DHT22;2314;48.272;11.562;2024-03-07T12:52:46;10.00;99.90
4604;DHT22;2314;48.272;11.562;2024-03-07T12:55:15;9.90;99.90
4604;DHT22;2314;48.272;11.562;2024-03-07T12:57:48;10.00;99.90
4604;DHT22;2314;48.272;11.562;2024-03-07T13:00:16;9.90;99.90
4604;DHT22;2314;48.272;11.562;2024-03-07T13:02:46;9.80;99.90
4604;DHT22;2314;48.272;11.562;2024-03-07T13:05:14;9.80;99.90
4604;DHT22;2314;48.272;11.562;2024-03-07T13:07:46;9.70;99.90
4604;DHT22;2314;48.272;11.562;2024-03-07T13:10:14;9.80;99.90
4604;DHT22;2314;48.272;11.562;2024-03-07T13:12:42;9.90;99.90
4604;DHT22;2314;48.272;11.562;2024-03-07T13:15:12;9.70;99.90
4604;DHT22;2314;48.272;11.562;2024-03-07T13:17:39;9.50;99.90
4604;DHT22;2314;48.272;11.562;2024-03-07T13:20:09;9.40;99.90
4604;DHT22;2314;48.272;11.562;2024-03-07T13:22:41;9.40;99.90
4604;DHT22;2314;48.272;11.562;2024-03-07T13:25:10;9.50;99.90
4604;DHT22;2314;48.272;11.562;2024-03-07T13:27:50;9.40;99.90
4604;DHT22;2314;48.272;11.562;2024-03-07T13:30:22;9.50;99.90
4604;DHT22;2314;48.272;11.562;2024-03-07T13:32:53;9.30;99.90
4604;DHT22;2314;48.272;11.562;2024-03-07T13:35:21;9.50;99.90
4604;DHT22;2314;48.272;11.562;2024-03-07T13:37:50;9.70;99.90
4604;DHT22;2314;48.272;11.562;2024-03-07T13:40:17;9.60;99.90
4604;DHT22;2314;48.272;11.562;2024-03-07T13:42:54;9.40;99.90
4604;DHT22;2314;48.272;11.562;2024-03-07T13:45:24;9.20;99.90
4604;DHT22;2314;48.272;11.562;2024-03-07T13:47:53;8.90;99.90
4604;DHT22;2314;48.272;11.562;2024-03-07T13:50:22;8.90;99.90
4604;DHT22;2314;48.272;11.562;2024-03-07T13:52:51;9.10;99.90
4604;DHT22;2314;48.272;11.562;2024-03-07T13:55:52;9.60;99.90
4604;DHT22;2314;48.272;11.562;2024-03-07T13:58:34;9.90;99.90
4604;DHT22;2314;48.272;11.562;2024-03-07T14:01:30;9.60;99.90
4604;DHT22;2314;48.272;11.562;2024-03-07T14:04:24;9.50;99.90
4604;DHT22;2314;48.272;11.562;2024-03-07T14:07:28;9.20;99.90
4604;DHT22;2314;48.272;11.562;2024-03-07T14:10:45;9.20;99.90
4604;DHT22;2314;48.272;11.562;2024-03-07T14:13:54;9.10;99.90
4604;DHT22;2314;48.272;11.562;2024-03-07T14:20:42;8.80;99.90
4604;DHT22;2314;48.272;11.562;2024-03-07T14:23:30;8.50;99.90
4604;DHT22;2314;48.272;11.562;2024-03-07T14:26:41;8.50;99.90
4604;DHT22;2314;48.272;11.562;2024-03-07T14:29:24;8.50;99.90
4604;DHT22;2314;48.272;11.562;2024-03-07T14:31:57;8.30;99.90
4604;DHT22;2314;48.272;11.562;2024-03-07T14:34:37;8.40;99.90
4604;DHT22;2314;48.272;11.562;2024-03-07T14:37:20;8.40;99.90
4604;DHT22;2314;48.272;11.562;2024-03-07T14:39:52;8.20;99.90
4604;DHT22;2314;48.272;11.562;2024-03-07T14:42:22;8.10;99.90
4604;DHT22;2314;48.272;11.562;2024-03-07T14:44:50;8.10;99.90
4604;DHT22;2314;48.272;11.562;2024-03-07T14:47:20;8.10;99.90
4604;DHT22;2314;48.272;11.562;2024-03-07T14:49:48;8.10;99.90
4604;DHT22;2314;48.272;11.562;2024-03-07T14:52:15;8.00;99.90
4604;DHT22;2314;48.272;11.562;2024-03-07T14:54:42;8.00;99.90
4604;DHT22;2314;48.272;11.562;2024-03-07T14:57:10;7.90;99.90
4604;DHT22;2314;48.272;11.562;2024-03-07T14:59:37;7.80;99.90
4604;DHT22;2314;48.272;11.562;2024-03-07T15:02:06;7.80;99.90
4604;DHT22;2314;48.272;11.562;2024-03-07T15:04:37;7.90;99.90
4604;DHT22;2314;48.272;11.562;2024-03-07T15:07:07;7.90;99.90
4604;DHT22;2314;48.272;11.562;2024-03-07T15:09:35;7.80;99.90
4604;DHT22;2314;48.272;11.562;2024-03-07T15:12:04;7.70;99.90
4604;DHT22;2314;48.272;11.562;2024-03-07T15:14:33;7.60;99.90
4604;DHT22;2314;48.272;11.562;2024-03-07T15:17:00;7.60;99.90
4604;DHT22;2314;48.272;11.562;2024-03-07T15:19:29;7.70;99.90
4604;DHT22;2314;48.272;11.562;2024-03-07T15:21:58;7.60;99.90
4604;DHT22;2314;48.272;11.562;2024-03-07T15:24:25;7.70;99.90
4604;DHT22;2314;48.272;11.562;2024-03-07T15:26:52;7.70;99.90
4604;DHT22;2314;48.272;11.562;2024-03-07T15:29:19;7.70;99.90
4604;DHT22;2314;48.272;11.562;2024-03-07T15:31:48;7.70;99.90
4604;DHT22;2314;48.272;11.562;2024-03-07T15:34:15;7.70;99.90
4604;DHT22;2314;48.272;11.562;2024-03-07T15:36:43;7.50;99.90
4604;DHT22;2314;48.272;11.562;2024-03-07T15:39:11;7.40;99.90
4604;DHT22;2314;48.272;11.562;2024-03-07T15:41:52;7.40;99.90
4604;DHT22;2314;48.272;11.562;2024-03-07T15:44:20;7.30;99.90
4604;DHT22;2314;48.272;11.562;2024-03-07T15:46:47;7.30;99.90
4604;DHT22;2314;48.272;11.562;2024-03-07T15:49:15;7.20;99.90
4604;DHT22;2314;48.272;11.562;2024-03-07T15:51:42;7.20;99.90
4604;DHT22;2314;48.272;11.562;2024-03-07T15:54:12;7.30;99.90
4604;DHT22;2314;48.272;11.562;2024-03-07T15:56:43;7.30;99.90
4604;DHT22;2314;48.272;11.562;2024-03-07T15:59:11;7.20;99.90
4604;DHT22;2314;48.272;11.562;2024-03-07T16:01:38;7.10;99.90
4604;DHT22;2314;48.272;11.562;2024-03-07T16:04:05;7.10;99.90
4604;DHT22;2314;48.272;11.562;2024-03-07T16:06:32;7.10;99.90
4604;DHT22;2314;48.272;11.562;2024-03-07T16:08:59;7.10;99.90
4604;DHT22;2314;48.272;11.562;2024-03-07T16:11:27;7.00;99.90
4604;DHT22;2314;48.272;11.562;2024-03-07T16:13:54;7.00;99.90
4604;DHT22;2314;48.272;11.562;2024-03-07T16:16:21;7.00;99.90
4604;DHT22;2314;48.272;11.562;2024-03-07T16:18:48;6.90;99.90
4604;DHT22;2314;48.272;11.562;2024-03-07T16:21:15;6.90;99.90